sensor_id;sensor_type;location;lat;lon;timestamp;temperature;humidity
13960;DHT22;7052;51.050;3.716;2023-05-20T00:00:05;13.50;99.90
13960;DHT22;7052;51.050;3.716;2023-05-20T00:02:32;13.60;99.90
13960;DHT22;7052;51.050;3.716;2023-05-20T00:05:00;13.60;99.90
13960;DHT22;7052;51.050;3.716;2023-05-20T00:07:27;13.70;99.90
13960;DHT22;7052;51.050;3.716;2023-05-20T00:09:55;13.80;99.90
13960;DHT22;7052;51.050;3.716;2023-05-20T00:12:24;13.80;99.90
13960;DHT22;7052;51.050;3.716;2023-05-20T00:14:51;13.80;99.90
13960;DHT22;7052;51.050;3.716;2023-05-20T00:17:19;13.80;99.90
13960;DHT22;7052;51.050;3.716;2023-05-20T00:19:46;13.70;99.90
13960;DHT22;7052;51.050;3.716;2023-05-20T00:22:13;13.70;99.90
13960;DHT22;7052;51.050;3.716;2023-05-20T00:24:45;13.70;99.90
13960;DHT22;7052;51.050;3.716;2023-05-20T00:27:12;13.80;99.90
13960;DHT22;7052;51.050;3.716;2023-05-20T00:29:41;13.70;99.90
13960;DHT22;7052;51.050;3.716;2023-05-20T00:32:08;13.70;99.90
13960;DHT22;7052;51.050;3.716;2023-05-20T00:34:35;13.70;99.90
13960;DHT22;7052;51.050;3.716;2023-05-20T00:37:02;13.70;99.90
13960;DHT22;7052;51.050;3.716;2023-05-20T00:39:29;13.70;99.90
13960;DHT22;7052;51.050;3.716;2023-05-20T00:41:57;13.60;99.90
13960;DHT22;7052;51.050;3.716;2023-05-20T00:44:29;13.60;99.90
13960;DHT22;7052;51.050;3.716;2023-05-20T00:46:57;13.50;99.90
13960;DHT22;7052;51.050;3.716;2023-05-20T00:49:28;13.50;99.90
13960;DHT22;7052;51.050;3.716;2023-05-20T00:51:55;13.50;99.90
13960;DHT22;7052;51.050;3.716;2023-05-20T00:54:22;13.60;99.90
13960;DHT22;7052;51.050;3.716;2023-05-20T00:56:50;13.50;99.90
13960;DHT22;7052;51.050;3.716;2023-05-20T00:59:18;13.50;99.90
13960;DHT22;7052;51.050;3.716;2023-05-20T01:01:45;13.50;99.90
13960;DHT22;7052;51.050;3.716;2023-05-20T01:04:15;13.50;99.90
13960;DHT22;7052;51.050;3.716;2023-05-20T01:06:42;13.40;99.90
13960;DHT22;7052;51.050;3.716;2023-05-20T01:09:10;13.50;99.90
13960;DHT22;7052;51.050;3.716;2023-05-20T01:11:45;13.50;99.90
13960;DHT22;7052;51.050;3.716;2023-05-20T01:14:16;13.40;99.90
13960;DHT22;7052;51.050;3.716;2023-05-20T01:16:46;13.40;99.90
13960;DHT22;7052;51.050;3.716;2023-05-20T01:19:26;13.40;99.90
13960;DHT22;7052;51.050;3.716;2023-05-20T01:21:59;13.40;99.90
13960;DHT22;7052;51.050;3.716;2023-05-20T01:24:28;13.30;99.90
13960;DHT22;7052;51.050;3.716;2023-05-20T01:26:55;13.30;99.90
13960;DHT22;7052;51.050;3.716;2023-05-20T01:29:23;13.30;99.90
13960;DHT22;7052;51.050;3.716;2023-05-20T01:31:51;13.30;99.90
13960;DHT22;7052;51.050;3.716;2023-05-20T01:34:20;13.30;99.90
13960;DHT22;7052;51.050;3.716;2023-05-20T01:36:48;13.30;99.90
13960;DHT22;7052;51.050;3.716;2023-05-20T01:39:16;13.20;99.90
13960;DHT22;7052;51.050;3.716;2023-05-20T01:41:45;13.20;99.90
13960;DHT22;7052;51.050;3.716;2023-05-20T01:44:13;13.20;99.90
13960;DHT22;7052;51.050;3.716;2023-05-20T01:46:40;13.20;99.90
13960;DHT22;7052;51.050;3.716;2023-05-20T01:49:08;13.10;99.90
13960;DHT22;7052;51.050;3.716;2023-05-20T01:51:35;13.10;99.90
13960;DHT22;7052;51.050;3.716;2023-05-20T01:54:02;13.10;99.90
13960;DHT22;7052;51.050;3.716;2023-05-20T01:56:34;13.10;99.90
13960;DHT22;7052;51.050;3.716;2023-05-20T01:59:08;13.00;99.90
13960;DHT22;7052;51.050;3.716;2023-05-20T02:01:35;13.10;99.90
13960;DHT22;7052;51.050;3.716;2023-05-20T02:04:02;13.00;99.90
13960;DHT22;7052;51.050;3.716;2023-05-20T02:06:28;13.00;99.90
13960;DHT22;7052;51.050;3.716;2023-05-20T02:08:56;13.00;99.90
13960;DHT22;7052;51.050;3.716;2023-05-20T02:11:23;13.00;99.90
13960;DHT22;7052;51.050;3.716;2023-05-20T02:13:51;12.90;99.90
13960;DHT22;7052;51.050;3.716;2023-05-20T02:16:19;12.90;99.90
13960;DHT22;7052;51.050;3.716;2023-05-20T02:18:47;13.00;99.90
13960;DHT22;7052;51.050;3.716;2023-05-20T02:21:16;13.00;99.90
13960;DHT22;7052;51.050;3.716;2023-05-20T02:23:43;12.90;99.90
13960;DHT22;7052;51.050;3.716;2023-05-20T02:26:10;12.90;99.90
13960;DHT22;7052;51.050;3.716;2023-05-20T02:28:44;12.90;99.90
13960;DHT22;7052;51.050;3.716;2023-05-20T02:31:15;12.90;99.90
13960;DHT22;7052;51.050;3.716;2023-05-20T02:33:43;12.80;99.90
13960;DHT22;7052;51.050;3.716;2023-05-20T02:36:10;12.80;99.90
13960;DHT22;7052;51.050;3.716;2023-05-20T02:38:38;12.80;99.90
13960;DHT22;7052;51.050;3.716;2023-05-20T02:41:05;12.80;99.90
13960;DHT22;7052;51.050;3.716;2023-05-20T02:43:33;12.80;99.90
13960;DHT22;7052;51.050;3.716;2023-05-20T02:46:01;12.70;99.90
13960;DHT22;7052;51.050;3.716;2023-05-20T02:48:29;12.70;99.90
13960;DHT22;7052;51.050;3.716;2023-05-20T02:51:00;12.70;99.90
13960;DHT22;7052;51.050;3.716;2023-05-20T02:53:27;12.70;99.90
13960;DHT22;7052;51.050;3.716;2023-05-20T02:55:54;12.60;99.90
13960;DHT22;7052;51.050;3.716;2023-05-20T02:58:23;12.60;99.90
13960;DHT22;7052;51.050;3.716;2023-05-20T03:00:52;12.60;99.90
13960;DHT22;7052;51.050;3.716;2023-05-20T03:03:19;12.60;99.90
13960;DHT22;7052;51.050;3.716;2023-05-20T03:05:47;12.60;99.90
13960;DHT22;7052;51.050;3.716;2023-05-20T03:08:20;12.60;99.90
13960;DHT22;7052;51.050;3.716;2023-05-20T03:10:49;12.50;99.90
13960;DHT22;7052;51.050;3.716;2023-05-20T03:13:17;12.60;99.90
13960;DHT22;7052;51.050;3.716;2023-05-20T03:15:45;12.50;99.90
13960;DHT22;7052;51.050;3.716;2023-05-20T03:18:12;12.50;99.90
13960;DHT22;7052;51.050;3.716;2023-05-20T03:20:39;12.50;99.90
13960;DHT22;7052;51.050;3.716;2023-05-20T03:23:09;12.50;99.90
13960;DHT22;7052;51.050;3.716;2023-05-20T03:25:39;12.40;99.90
13960;DHT22;7052;51.050;3.716;2023-05-20T03:28:08;12.40;99.90
13960;DHT22;7052;51.050;3.716;2023-05-20T03:30:35;12.30;99.90
13960;DHT22;7052;51.050;3.716;2023-05-20T03:33:03;12.30;99.90
13960;DHT22;7052;51.050;3.716;2023-05-20T03:35:31;12.30;99.90
13960;DHT22;7052;51.050;3.716;2023-05-20T03:37:58;12.30;99.90
13960;DHT22;7052;51.050;3.716;2023-05-20T03:40:29;12.30;99.90
13960;DHT22;7052;51.050;3.716;2023-05-20T03:43:03;12.30;99.90
13960;DHT22;7052;51.050;3.716;2023-05-20T03:45:31;12.20;99.90
13960;DHT22;7052;51.050;3.716;2023-05-20T03:47:59;12.20;99.90
13960;DHT22;7052;51.050;3.716;2023-05-20T03:50:27;12.20;99.90
13960;DHT22;7052;51.050;3.716;2023-05-20T03:52:55;12.30;99.90
13960;DHT22;7052;51.050;3.716;2023-05-20T03:55:23;12.20;99.90
13960;DHT22;7052;51.050;3.716;2023-05-20T03:58:01;12.10;99.90
13960;DHT22;7052;51.050;3.716;2023-05-20T04:00:34;12.10;99.90
13960;DHT22;7052;51.050;3.716;2023-05-20T04:03:01;12.10;99.90
13960;DHT22;7052;51.050;3.716;2023-05-20T04:05:29;12.10;99.90
13960;DHT22;7052;51.050;3.716;2023-05-20T04:07:57;12.10;99.90
13960;DHT22;7052;51.050;3.716;2023-05-20T04:10:28;12.00;99.90
13960;DHT22;7052;51.050;3.716;2023-05-20T04:12:58;12.00;99.90
13960;DHT22;7052;51.050;3.716;2023-05-20T04:15:26;12.00;99.90
13960;DHT22;7052;51.050;3.716;2023-05-20T04:17:56;12.00;99.90
13960;DHT22;7052;51.050;3.716;2023-05-20T04:20:25;12.00;99.90
13960;DHT22;7052;51.050;3.716;2023-05-20T04:22:54;12.00;99.90
13960;DHT22;7052;51.050;3.716;2023-05-20T04:25:21;12.00;99.90
13960;DHT22;7052;51.050;3.716;2023-05-20T04:27:48;12.00;99.90
13960;DHT22;7052;51.050;3.716;2023-05-20T04:30:18;12.00;99.90
13960;DHT22;7052;51.050;3.716;2023-05-20T04:32:47;12.10;99.90
13960;DHT22;7052;51.050;3.716;2023-05-20T04:35:19;12.00;99.90
13960;DHT22;7052;51.050;3.716;2023-05-20T04:37:46;12.10;99.90
13960;DHT22;7052;51.050;3.716;2023-05-20T04:40:13;12.00;99.90
13960;DHT22;7052;51.050;3.716;2023-05-20T04:42:42;12.10;99.90
13960;DHT22;7052;51.050;3.716;2023-05-20T04:45:11;12.10;99.90
13960;DHT22;7052;51.050;3.716;2023-05-20T04:47:40;12.20;99.90
13960;DHT22;7052;51.050;3.716;2023-05-20T04:50:11;12.20;99.90
13960;DHT22;7052;51.050;3.716;2023-05-20T04:52:42;12.20;99.90
13960;DHT22;7052;51.050;3.716;2023-05-20T04:55:11;12.20;99.90
13960;DHT22;7052;51.050;3.716;2023-05-20T04:57:40;12.20;99.90
13960;DHT22;7052;51.050;3.716;2023-05-20T05:00:08;12.20;99.90
13960;DHT22;7052;51.050;3.716;2023-05-20T05:02:36;12.20;99.90
13960;DHT22;7052;51.050;3.716;2023-05-20T05:05:04;12.30;99.90
13960;DHT22;7052;51.050;3.716;2023-05-20T05:07:31;12.30;99.90
13960;DHT22;7052;51.050;3.716;2023-05-20T05:10:03;12.30;99.90
13960;DHT22;7052;51.050;3.716;2023-05-20T05:12:30;12.30;99.90
13960;DHT22;7052;51.050;3.716;2023-05-20T05:14:57;12.40;99.90
13960;DHT22;7052;51.050;3.716;2023-05-20T05:17:27;12.40;99.90
13960;DHT22;7052;51.050;3.716;2023-05-20T05:19:54;12.40;99.90
13960;DHT22;7052;51.050;3.716;2023-05-20T05:22:21;12.50;99.90
13960;DHT22;7052;51.050;3.716;2023-05-20T05:24:48;12.50;99.90
13960;DHT22;7052;51.050;3.716;2023-05-20T05:27:25;12.50;99.90
13960;DHT22;7052;51.050;3.716;2023-05-20T05:30:11;12.50;99.90
13960;DHT22;7052;51.050;3.716;2023-05-20T05:32:38;12.60;99.90
13960;DHT22;7052;51.050;3.716;2023-05-20T05:35:06;12.70;99.90
13960;DHT22;7052;51.050;3.716;2023-05-20T05:37:33;12.70;99.90
13960;DHT22;7052;51.050;3.716;2023-05-20T05:39:59;12.70;99.90
13960;DHT22;7052;51.050;3.716;2023-05-20T05:42:29;12.70;99.90
13960;DHT22;7052;51.050;3.716;2023-05-20T05:44:57;12.80;99.90
13960;DHT22;7052;51.050;3.716;2023-05-20T05:47:24;12.90;99.90
13960;DHT22;7052;51.050;3.716;2023-05-20T05:49:56;12.90;99.90
13960;DHT22;7052;51.050;3.716;2023-05-20T05:52:24;13.00;99.90
13960;DHT22;7052;51.050;3.716;2023-05-20T05:54:51;13.10;99.90
13960;DHT22;7052;51.050;3.716;2023-05-20T05:57:18;13.20;99.90
13960;DHT22;7052;51.050;3.716;2023-05-20T05:59:46;13.30;99.90
13960;DHT22;7052;51.050;3.716;2023-05-20T06:02:14;13.50;99.90
13960;DHT22;7052;51.050;3.716;2023-05-20T06:04:43;13.70;99.90
13960;DHT22;7052;51.050;3.716;2023-05-20T06:07:14;14.40;99.90
13960;DHT22;7052;51.050;3.716;2023-05-20T06:09:41;15.40;97.30
13960;DHT22;7052;51.050;3.716;2023-05-20T06:12:08;16.20;92.30
13960;DHT22;7052;51.050;3.716;2023-05-20T06:14:35;17.00;85.20
13960;DHT22;7052;51.050;3.716;2023-05-20T06:17:04;17.60;80.80
13960;DHT22;7052;51.050;3.716;2023-05-20T06:19:31;18.00;75.70
13960;DHT22;7052;51.050;3.716;2023-05-20T06:21:59;18.50;67.90
13960;DHT22;7052;51.050;3.716;2023-05-20T06:24:26;18.70;65.40
13960;DHT22;7052;51.050;3.716;2023-05-20T06:26:54;19.10;62.30
13960;DHT22;7052;51.050;3.716;2023-05-20T06:29:22;19.30;61.40
13960;DHT22;7052;51.050;3.716;2023-05-20T06:31:49;19.50;60.20
13960;DHT22;7052;51.050;3.716;2023-05-20T06:34:17;19.90;57.60
13960;DHT22;7052;51.050;3.716;2023-05-20T06:36:45;19.90;57.40
13960;DHT22;7052;51.050;3.716;2023-05-20T06:39:12;20.00;56.70
13960;DHT22;7052;51.050;3.716;2023-05-20T06:41:41;20.10;55.90
13960;DHT22;7052;51.050;3.716;2023-05-20T06:44:13;20.20;55.40
13960;DHT22;7052;51.050;3.716;2023-05-20T06:46:40;20.20;55.30
13960;DHT22;7052;51.050;3.716;2023-05-20T06:49:07;20.30;54.50
13960;DHT22;7052;51.050;3.716;2023-05-20T06:51:37;20.30;54.20
13960;DHT22;7052;51.050;3.716;2023-05-20T06:54:04;20.30;54.20
13960;DHT22;7052;51.050;3.716;2023-05-20T06:56:33;20.20;54.60
13960;DHT22;7052;51.050;3.716;2023-05-20T06:59:00;20.20;53.80
13960;DHT22;7052;51.050;3.716;2023-05-20T07:01:29;20.20;54.30
13960;DHT22;7052;51.050;3.716;2023-05-20T07:03:56;20.30;54.30
13960;DHT22;7052;51.050;3.716;2023-05-20T07:06:24;20.30;53.80
13960;DHT22;7052;51.050;3.716;2023-05-20T07:08:52;20.40;53.20
13960;DHT22;7052;51.050;3.716;2023-05-20T07:11:21;20.30;53.10
13960;DHT22;7052;51.050;3.716;2023-05-20T07:13:48;20.10;53.40
13960;DHT22;7052;51.050;3.716;2023-05-20T07:16:16;20.00;53.70
13960;DHT22;7052;51.050;3.716;2023-05-20T07:18:43;20.10;53.70
13960;DHT22;7052;51.050;3.716;2023-05-20T07:21:10;20.20;53.60
13960;DHT22;7052;51.050;3.716;2023-05-20T07:23:37;20.30;53.80
13960;DHT22;7052;51.050;3.716;2023-05-20T07:26:09;20.30;53.30
13960;DHT22;7052;51.050;3.716;2023-05-20T07:28:37;20.30;53.40
13960;DHT22;7052;51.050;3.716;2023-05-20T07:31:04;20.30;53.30
13960;DHT22;7052;51.050;3.716;2023-05-20T07:33:31;20.10;53.60
13960;DHT22;7052;51.050;3.716;2023-05-20T07:39:12;20.10;53.70
13960;DHT22;7052;51.050;3.716;2023-05-20T07:41:45;20.10;53.40
13960;DHT22;7052;51.050;3.716;2023-05-20T07:44:12;20.00;53.50
13960;DHT22;7052;51.050;3.716;2023-05-20T07:46:39;19.90;53.50
13960;DHT22;7052;51.050;3.716;2023-05-20T07:49:07;19.70;54.00
13960;DHT22;7052;51.050;3.716;2023-05-20T07:51:34;19.60;54.50
13960;DHT22;7052;51.050;3.716;2023-05-20T07:54:02;19.40;55.20
13960;DHT22;7052;51.050;3.716;2023-05-20T07:56:30;19.30;55.40
13960;DHT22;7052;51.050;3.716;2023-05-20T07:59:00;19.00;56.60
13960;DHT22;7052;51.050;3.716;2023-05-20T08:01:28;18.70;57.50
13960;DHT22;7052;51.050;3.716;2023-05-20T08:03:56;18.70;58.50
13960;DHT22;7052;51.050;3.716;2023-05-20T08:06:24;18.50;59.60
13960;DHT22;7052;51.050;3.716;2023-05-20T08:08:53;18.40;60.40
13960;DHT22;7052;51.050;3.716;2023-05-20T08:11:20;18.40;61.40
13960;DHT22;7052;51.050;3.716;2023-05-20T08:13:49;18.40;62.10
13960;DHT22;7052;51.050;3.716;2023-05-20T08:16:20;18.40;62.00
13960;DHT22;7052;51.050;3.716;2023-05-20T08:18:47;18.40;60.50
13960;DHT22;7052;51.050;3.716;2023-05-20T08:21:14;18.40;61.00
13960;DHT22;7052;51.050;3.716;2023-05-20T08:23:43;18.30;61.80
13960;DHT22;7052;51.050;3.716;2023-05-20T08:26:11;18.20;64.00
13960;DHT22;7052;51.050;3.716;2023-05-20T08:28:38;18.20;64.50
13960;DHT22;7052;51.050;3.716;2023-05-20T08:31:05;18.30;64.60
13960;DHT22;7052;51.050;3.716;2023-05-20T08:33:34;18.30;61.40
13960;DHT22;7052;51.050;3.716;2023-05-20T08:36:02;18.30;61.00
13960;DHT22;7052;51.050;3.716;2023-05-20T08:38:29;18.30;62.80
13960;DHT22;7052;51.050;3.716;2023-05-20T08:40:58;18.30;61.40
13960;DHT22;7052;51.050;3.716;2023-05-20T08:43:26;18.30;60.50
13960;DHT22;7052;51.050;3.716;2023-05-20T08:45:55;18.30;59.80
13960;DHT22;7052;51.050;3.716;2023-05-20T08:48:25;18.40;59.80
13960;DHT22;7052;51.050;3.716;2023-05-20T08:50:56;18.50;60.00
13960;DHT22;7052;51.050;3.716;2023-05-20T08:53:24;18.50;58.30
13960;DHT22;7052;51.050;3.716;2023-05-20T08:55:53;18.50;58.70
13960;DHT22;7052;51.050;3.716;2023-05-20T08:58:31;18.50;58.90
13960;DHT22;7052;51.050;3.716;2023-05-20T09:01:09;18.60;59.10
13960;DHT22;7052;51.050;3.716;2023-05-20T09:03:37;18.70;58.50
13960;DHT22;7052;51.050;3.716;2023-05-20T09:06:07;18.80;57.90
13960;DHT22;7052;51.050;3.716;2023-05-20T09:08:35;18.80;57.30
13960;DHT22;7052;51.050;3.716;2023-05-20T09:11:02;18.80;56.90
13960;DHT22;7052;51.050;3.716;2023-05-20T09:13:31;18.90;56.70
13960;DHT22;7052;51.050;3.716;2023-05-20T09:16:00;18.90;57.20
13960;DHT22;7052;51.050;3.716;2023-05-20T09:18:28;19.00;57.80
13960;DHT22;7052;51.050;3.716;2023-05-20T09:20:56;19.10;56.80
13960;DHT22;7052;51.050;3.716;2023-05-20T09:23:27;19.20;56.20
13960;DHT22;7052;51.050;3.716;2023-05-20T09:25:59;19.20;55.60
13960;DHT22;7052;51.050;3.716;2023-05-20T09:28:28;19.30;55.10
13960;DHT22;7052;51.050;3.716;2023-05-20T09:30:57;19.40;55.10
13960;DHT22;7052;51.050;3.716;2023-05-20T09:33:28;19.50;55.50
13960;DHT22;7052;51.050;3.716;2023-05-20T09:36:03;19.60;55.20
13960;DHT22;7052;51.050;3.716;2023-05-20T09:38:36;19.60;54.60
13960;DHT22;7052;51.050;3.716;2023-05-20T09:41:06;19.60;54.50
13960;DHT22;7052;51.050;3.716;2023-05-20T09:43:33;19.80;54.30
13960;DHT22;7052;51.050;3.716;2023-05-20T09:46:03;19.80;54.00
13960;DHT22;7052;51.050;3.716;2023-05-20T09:48:32;19.80;54.10
13960;DHT22;7052;51.050;3.716;2023-05-20T09:51:04;19.80;54.20
13960;DHT22;7052;51.050;3.716;2023-05-20T09:53:42;19.70;54.70
13960;DHT22;7052;51.050;3.716;2023-05-20T09:56:09;19.60;55.20
13960;DHT22;7052;51.050;3.716;2023-05-20T09:58:37;19.80;54.60
13960;DHT22;7052;51.050;3.716;2023-05-20T10:01:05;19.80;54.60
13960;DHT22;7052;51.050;3.716;2023-05-20T10:03:33;19.80;52.20
13960;DHT22;7052;51.050;3.716;2023-05-20T10:06:14;19.80;50.50
13960;DHT22;7052;51.050;3.716;2023-05-20T10:11:55;20.30;50.40
13960;DHT22;7052;51.050;3.716;2023-05-20T10:14:42;20.60;50.60
13960;DHT22;7052;51.050;3.716;2023-05-20T10:17:16;20.60;50.60
13960;DHT22;7052;51.050;3.716;2023-05-20T10:19:46;20.60;48.90
13960;DHT22;7052;51.050;3.716;2023-05-20T10:22:26;20.50;48.20
13960;DHT22;7052;51.050;3.716;2023-05-20T10:24:58;20.50;48.30
13960;DHT22;7052;51.050;3.716;2023-05-20T10:27:30;20.50;48.00
13960;DHT22;7052;51.050;3.716;2023-05-20T10:30:14;20.50;48.40
13960;DHT22;7052;51.050;3.716;2023-05-20T10:32:51;20.60;49.10
13960;DHT22;7052;51.050;3.716;2023-05-20T10:35:21;20.70;48.60
13960;DHT22;7052;51.050;3.716;2023-05-20T10:37:52;20.60;48.20
13960;DHT22;7052;51.050;3.716;2023-05-20T10:40:24;20.70;48.50
13960;DHT22;7052;51.050;3.716;2023-05-20T10:42:53;20.80;48.40
13960;DHT22;7052;51.050;3.716;2023-05-20T10:45:26;21.00;48.10
13960;DHT22;7052;51.050;3.716;2023-05-20T10:48:26;20.90;47.70
13960;DHT22;7052;51.050;3.716;2023-05-20T10:50:54;20.70;48.20
13960;DHT22;7052;51.050;3.716;2023-05-20T10:53:24;20.90;47.00
13960;DHT22;7052;51.050;3.716;2023-05-20T10:55:55;21.10;45.90
13960;DHT22;7052;51.050;3.716;2023-05-20T10:58:24;21.20;45.60
13960;DHT22;7052;51.050;3.716;2023-05-20T11:00:53;21.30;45.30
13960;DHT22;7052;51.050;3.716;2023-05-20T11:03:26;21.40;45.00
13960;DHT22;7052;51.050;3.716;2023-05-20T11:05:55;21.40;44.40
13960;DHT22;7052;51.050;3.716;2023-05-20T11:08:30;21.30;44.90
13960;DHT22;7052;51.050;3.716;2023-05-20T11:10:57;21.40;44.80
13960;DHT22;7052;51.050;3.716;2023-05-20T11:13:26;21.40;44.80
13960;DHT22;7052;51.050;3.716;2023-05-20T11:15:54;21.60;44.70
13960;DHT22;7052;51.050;3.716;2023-05-20T11:18:27;21.60;44.60
13960;DHT22;7052;51.050;3.716;2023-05-20T11:20:57;21.70;44.70
13960;DHT22;7052;51.050;3.716;2023-05-20T11:23:25;21.70;44.40
13960;DHT22;7052;51.050;3.716;2023-05-20T11:25:53;21.70;44.60
13960;DHT22;7052;51.050;3.716;2023-05-20T11:28:23;21.60;44.70
13960;DHT22;7052;51.050;3.716;2023-05-20T11:30:53;21.60;44.50
13960;DHT22;7052;51.050;3.716;2023-05-20T11:33:20;21.50;44.40
13960;DHT22;7052;51.050;3.716;2023-05-20T11:35:52;21.50;44.10
13960;DHT22;7052;51.050;3.716;2023-05-20T11:38:20;21.50;44.10
13960;DHT22;7052;51.050;3.716;2023-05-20T11:40:51;21.60;44.10
13960;DHT22;7052;51.050;3.716;2023-05-20T11:43:19;21.70;44.30
13960;DHT22;7052;51.050;3.716;2023-05-20T11:45:55;21.90;44.00
13960;DHT22;7052;51.050;3.716;2023-05-20T11:48:24;22.00;43.20
13960;DHT22;7052;51.050;3.716;2023-05-20T11:50:52;22.00;43.00
13960;DHT22;7052;51.050;3.716;2023-05-20T11:53:21;22.00;42.60
13960;DHT22;7052;51.050;3.716;2023-05-20T11:55:52;21.90;42.90
13960;DHT22;7052;51.050;3.716;2023-05-20T11:58:23;21.70;43.20
13960;DHT22;7052;51.050;3.716;2023-05-20T12:00:57;21.80;43.30
13960;DHT22;7052;51.050;3.716;2023-05-20T12:03:28;21.90;43.10
13960;DHT22;7052;51.050;3.716;2023-05-20T12:05:56;22.10;42.90
13960;DHT22;7052;51.050;3.716;2023-05-20T12:08:26;22.30;42.50
13960;DHT22;7052;51.050;3.716;2023-05-20T12:10:53;22.40;42.50
13960;DHT22;7052;51.050;3.716;2023-05-20T12:13:24;22.40;42.10
13960;DHT22;7052;51.050;3.716;2023-05-20T12:16:01;22.50;41.80
13960;DHT22;7052;51.050;3.716;2023-05-20T12:18:30;22.60;41.90
13960;DHT22;7052;51.050;3.716;2023-05-20T12:20:57;22.50;41.70
13960;DHT22;7052;51.050;3.716;2023-05-20T12:23:25;22.50;41.80
13960;DHT22;7052;51.050;3.716;2023-05-20T12:25:56;22.50;41.80
13960;DHT22;7052;51.050;3.716;2023-05-20T12:28:24;22.50;42.10
13960;DHT22;7052;51.050;3.716;2023-05-20T12:30:51;22.50;42.30
13960;DHT22;7052;51.050;3.716;2023-05-20T12:33:19;22.50;42.00
13960;DHT22;7052;51.050;3.716;2023-05-20T12:35:47;22.50;42.00
13960;DHT22;7052;51.050;3.716;2023-05-20T12:38:16;22.70;42.10
13960;DHT22;7052;51.050;3.716;2023-05-20T12:41:02;22.80;41.30
13960;DHT22;7052;51.050;3.716;2023-05-20T12:43:29;22.60;41.40
13960;DHT22;7052;51.050;3.716;2023-05-20T12:45:56;22.50;42.00
13960;DHT22;7052;51.050;3.716;2023-05-20T12:48:25;22.40;42.10
13960;DHT22;7052;51.050;3.716;2023-05-20T12:50:52;22.30;42.50
13960;DHT22;7052;51.050;3.716;2023-05-20T12:53:19;22.50;42.70
13960;DHT22;7052;51.050;3.716;2023-05-20T12:55:49;22.70;42.60
13960;DHT22;7052;51.050;3.716;2023-05-20T12:58:16;22.90;42.20
13960;DHT22;7052;51.050;3.716;2023-05-20T13:00:45;23.00;41.80
13960;DHT22;7052;51.050;3.716;2023-05-20T13:03:13;23.10;41.60
13960;DHT22;7052;51.050;3.716;2023-05-20T13:05:56;23.30;41.40
13960;DHT22;7052;51.050;3.716;2023-05-20T13:08:23;23.40;41.50
13960;DHT22;7052;51.050;3.716;2023-05-20T13:10:53;23.40;41.60
13960;DHT22;7052;51.050;3.716;2023-05-20T13:13:21;23.50;41.40
13960;DHT22;7052;51.050;3.716;2023-05-20T13:15:48;23.60;41.40
13960;DHT22;7052;51.050;3.716;2023-05-20T13:18:16;23.60;41.60
13960;DHT22;7052;51.050;3.716;2023-05-20T13:20:43;23.60;41.60
13960;DHT22;7052;51.050;3.716;2023-05-20T13:23:14;23.70;41.50
13960;DHT22;7052;51.050;3.716;2023-05-20T13:25:42;23.70;41.20
13960;DHT22;7052;51.050;3.716;2023-05-20T13:28:09;23.50;41.40
13960;DHT22;7052;51.050;3.716;2023-05-20T13:30:41;23.50;42.60
13960;DHT22;7052;51.050;3.716;2023-05-20T13:33:10;23.50;41.70
13960;DHT22;7052;51.050;3.716;2023-05-20T13:35:38;23.60;41.80
13960;DHT22;7052;51.050;3.716;2023-05-20T13:38:06;23.60;41.30
13960;DHT22;7052;51.050;3.716;2023-05-20T13:40:37;23.40;41.50
13960;DHT22;7052;51.050;3.716;2023-05-20T13:43:05;23.20;42.00
13960;DHT22;7052;51.050;3.716;2023-05-20T13:45:32;23.30;42.10
13960;DHT22;7052;51.050;3.716;2023-05-20T13:47:59;23.40;42.10
13960;DHT22;7052;51.050;3.716;2023-05-20T13:50:27;23.30;41.90
13960;DHT22;7052;51.050;3.716;2023-05-20T13:52:55;23.20;41.90
13960;DHT22;7052;51.050;3.716;2023-05-20T13:55:23;23.10;42.00
13960;DHT22;7052;51.050;3.716;2023-05-20T13:57:54;23.20;42.10
13960;DHT22;7052;51.050;3.716;2023-05-20T14:00:23;23.30;42.00
13960;DHT22;7052;51.050;3.716;2023-05-20T14:02:57;23.40;42.00
13960;DHT22;7052;51.050;3.716;2023-05-20T14:05:25;23.60;41.70
13960;DHT22;7052;51.050;3.716;2023-05-20T14:07:54;23.60;41.50
13960;DHT22;7052;51.050;3.716;2023-05-20T14:10:25;23.60;41.40
13960;DHT22;7052;51.050;3.716;2023-05-20T14:12:57;23.60;41.60
13960;DHT22;7052;51.050;3.716;2023-05-20T14:15:26;23.80;41.60
13960;DHT22;7052;51.050;3.716;2023-05-20T14:17:55;23.80;41.90
13960;DHT22;7052;51.050;3.716;2023-05-20T14:20:23;23.80;42.30
13960;DHT22;7052;51.050;3.716;2023-05-20T14:22:52;23.50;42.10
13960;DHT22;7052;51.050;3.716;2023-05-20T14:25:21;23.40;42.40
13960;DHT22;7052;51.050;3.716;2023-05-20T14:27:48;23.40;42.50
13960;DHT22;7052;51.050;3.716;2023-05-20T14:30:21;23.30;42.30
13960;DHT22;7052;51.050;3.716;2023-05-20T14:32:48;23.20;42.50
13960;DHT22;7052;51.050;3.716;2023-05-20T14:35:15;23.00;42.90
13960;DHT22;7052;51.050;3.716;2023-05-20T14:37:42;23.00;43.20
13960;DHT22;7052;51.050;3.716;2023-05-20T14:40:10;23.00;43.50
13960;DHT22;7052;51.050;3.716;2023-05-20T14:42:41;22.90;43.60
13960;DHT22;7052;51.050;3.716;2023-05-20T14:45:09;22.80;44.00
13960;DHT22;7052;51.050;3.716;2023-05-20T14:47:39;22.70;43.60
13960;DHT22;7052;51.050;3.716;2023-05-20T14:50:08;22.70;43.90
13960;DHT22;7052;51.050;3.716;2023-05-20T14:52:37;22.50;44.30
13960;DHT22;7052;51.050;3.716;2023-05-20T14:55:04;22.40;44.30
13960;DHT22;7052;51.050;3.716;2023-05-20T14:57:32;22.50;44.80
13960;DHT22;7052;51.050;3.716;2023-05-20T15:00:00;22.60;44.70
13960;DHT22;7052;51.050;3.716;2023-05-20T15:02:28;22.70;44.00
13960;DHT22;7052;51.050;3.716;2023-05-20T15:04:59;22.60;44.30
13960;DHT22;7052;51.050;3.716;2023-05-20T15:07:27;22.90;44.10
13960;DHT22;7052;51.050;3.716;2023-05-20T15:09:55;23.10;43.60
13960;DHT22;7052;51.050;3.716;2023-05-20T15:12:22;23.30;43.50
13960;DHT22;7052;51.050;3.716;2023-05-20T15:14:49;23.20;43.50
13960;DHT22;7052;51.050;3.716;2023-05-20T15:17:17;23.30;43.60
13960;DHT22;7052;51.050;3.716;2023-05-20T15:19:55;23.30;43.70
13960;DHT22;7052;51.050;3.716;2023-05-20T15:22:35;23.20;43.60
13960;DHT22;7052;51.050;3.716;2023-05-20T15:25:02;23.10;44.10
13960;DHT22;7052;51.050;3.716;2023-05-20T15:27:30;22.90;44.30
13960;DHT22;7052;51.050;3.716;2023-05-20T15:29:58;22.80;44.70
13960;DHT22;7052;51.050;3.716;2023-05-20T15:32:28;22.70;44.90
13960;DHT22;7052;51.050;3.716;2023-05-20T15:34:59;22.70;44.50
13960;DHT22;7052;51.050;3.716;2023-05-20T15:37:28;22.50;44.50
13960;DHT22;7052;51.050;3.716;2023-05-20T15:39:55;22.40;44.80
13960;DHT22;7052;51.050;3.716;2023-05-20T15:42:23;22.20;44.90
13960;DHT22;7052;51.050;3.716;2023-05-20T15:44:52;22.10;45.40
13960;DHT22;7052;51.050;3.716;2023-05-20T15:47:26;22.10;45.90
13960;DHT22;7052;51.050;3.716;2023-05-20T15:49:54;22.10;45.80
13960;DHT22;7052;51.050;3.716;2023-05-20T15:52:23;22.20;45.80
13960;DHT22;7052;51.050;3.716;2023-05-20T15:54:52;22.40;45.80
13960;DHT22;7052;51.050;3.716;2023-05-20T15:57:21;22.50;45.50
13960;DHT22;7052;51.050;3.716;2023-05-20T15:59:49;22.60;45.20
13960;DHT22;7052;51.050;3.716;2023-05-20T16:02:19;22.60;45.30